createdAt,value
2023-05-23T00:00:59.420Z,101973.25
2023-05-23T00:03:26.966Z,101976.97
2023-05-23T00:05:53.488Z,101971.03
2023-05-23T00:08:20.393Z,101981.72
2023-05-23T00:10:46.905Z,101980.22
2023-05-23T00:13:14.675Z,101972.38
2023-05-23T00:15:42.401Z,101990.16
2023-05-23T00:18:11.028Z,101986.31
2023-05-23T00:20:40.836Z,101992.19
2023-05-23T00:23:08.678Z,101985.94
2023-05-23T00:25:35.978Z,101975.63
2023-05-23T00:28:06.181Z,101973.13
2023-05-23T00:30:33.990Z,101984.00
2023-05-23T00:33:00.868Z,101981.75
2023-05-23T00:35:27.788Z,101984.72
2023-05-23T00:37:55.639Z,101990.63
2023-05-23T00:40:22.805Z,101992.28
2023-05-23T00:42:49.489Z,101995.00
2023-05-23T00:45:17.078Z,101991.22
2023-05-23T00:47:45.689Z,101986.63
2023-05-23T00:50:14.576Z,101996.66
2023-05-23T00:52:42.450Z,101991.84
2023-05-23T00:55:10.250Z,101992.25
2023-05-23T00:57:41.404Z,101996.59
2023-05-23T01:00:12.782Z,102000.19
2023-05-23T01:02:45.068Z,102010.66
2023-05-23T01:05:17.686Z,101998.97
2023-05-23T01:07:45.524Z,102000.19
2023-05-23T01:13:20.013Z,101998.28
2023-05-23T01:16:01.131Z,101995.97
2023-05-23T01:18:41.826Z,101995.13
2023-05-23T01:21:27.008Z,102000.53
2023-05-23T01:24:08.226Z,102008.00
2023-05-23T01:26:53.576Z,102007.56
2023-05-23T01:29:27.411Z,102000.28
2023-05-23T01:31:58.090Z,102002.59
2023-05-23T01:34:24.786Z,102000.72
2023-05-23T01:36:56.173Z,102015.91
2023-05-23T01:39:23.147Z,102002.88
2023-05-23T01:41:53.686Z,102002.44
2023-05-23T01:44:21.470Z,102004.22
2023-05-23T01:46:48.663Z,102010.06
2023-05-23T01:49:17.971Z,101994.81
2023-05-23T01:51:45.674Z,102008.69
2023-05-23T01:54:14.287Z,101993.31
2023-05-23T01:56:42.978Z,101991.31
2023-05-23T01:59:09.782Z,101987.97
2023-05-23T02:01:38.038Z,101996.72
2023-05-23T02:04:04.629Z,102000.94
2023-05-23T02:06:31.896Z,102005.91
2023-05-23T02:08:58.435Z,102015.69
2023-05-23T02:11:24.870Z,102010.19
2023-05-23T02:13:52.111Z,102020.78
2023-05-23T02:16:18.584Z,102020.50
2023-05-23T02:18:46.219Z,102025.63
2023-05-23T02:21:12.793Z,102028.34
2023-05-23T02:23:39.228Z,102036.06
2023-05-23T02:26:05.735Z,102035.34
2023-05-23T02:28:32.293Z,102044.16
2023-05-23T02:30:58.812Z,102046.28
2023-05-23T02:33:25.437Z,102051.88
2023-05-23T02:35:52.238Z,102055.88
2023-05-23T02:38:20.643Z,102052.88
2023-05-23T02:40:47.231Z,102049.50
2023-05-23T02:43:13.656Z,102055.25
2023-05-23T02:45:40.445Z,102062.66
2023-05-23T02:48:07.266Z,102055.28
2023-05-23T02:50:33.999Z,102057.22
2023-05-23T02:53:00.490Z,102056.78
2023-05-23T02:55:27.687Z,102068.00
2023-05-23T02:57:54.325Z,102064.91
2023-05-23T03:00:21.222Z,102065.75
2023-05-23T03:02:52.235Z,102064.53
2023-05-23T03:05:18.813Z,102065.94
2023-05-23T03:07:45.725Z,102056.69
2023-05-23T03:10:12.355Z,102061.94
2023-05-23T03:12:38.807Z,102062.94
2023-05-23T03:15:05.860Z,102071.75
2023-05-23T03:17:32.442Z,102070.44
2023-05-23T03:19:58.870Z,102071.28
2023-05-23T03:22:25.460Z,102075.22
2023-05-23T03:24:51.897Z,102070.63
2023-05-23T03:27:18.361Z,102077.25
2023-05-23T03:29:44.758Z,102093.16
2023-05-23T03:32:11.448Z,102078.78
2023-05-23T03:34:38.590Z,102075.31
2023-05-23T03:37:05.627Z,102081.94
2023-05-23T03:39:32.034Z,102080.75
2023-05-23T03:41:58.535Z,102089.34
2023-05-23T03:44:25.143Z,102099.53
2023-05-23T03:46:51.807Z,102089.16
2023-05-23T03:49:19.185Z,102099.44
2023-05-23T03:51:45.592Z,102101.09
2023-05-23T03:54:17.406Z,102096.53
2023-05-23T03:56:43.999Z,102099.72
2023-05-23T03:59:10.559Z,102103.88
2023-05-23T04:01:37.222Z,102109.13
2023-05-23T04:04:04.852Z,102108.28
2023-05-23T04:06:33.832Z,102114.94
2023-05-23T04:09:01.141Z,102117.34
2023-05-23T04:11:27.926Z,102113.88
2023-05-23T04:13:54.396Z,102116.13
2023-05-23T04:16:22.529Z,102116.78
2023-05-23T04:18:49.268Z,102115.88
2023-05-23T04:21:16.078Z,102121.66
2023-05-23T04:24:04.018Z,102122.41
2023-05-23T04:26:30.535Z,102119.84
2023-05-23T04:28:56.999Z,102124.63
2023-05-23T04:31:23.746Z,102133.78
2023-05-23T04:33:50.774Z,102140.78
2023-05-23T04:36:18.915Z,102147.59
2023-05-23T04:38:50.527Z,102158.81
2023-05-23T04:41:17.034Z,102162.63
2023-05-23T04:44:02.406Z,102165.53
2023-05-23T04:46:36.639Z,102165.44
2023-05-23T04:49:38.415Z,102153.84
2023-05-23T04:52:05.552Z,102161.56
2023-05-23T04:54:33.112Z,102162.66
2023-05-23T04:57:03.513Z,102166.94
2023-05-23T04:59:30.297Z,102163.09
2023-05-23T05:01:56.798Z,102170.00
2023-05-23T05:04:23.767Z,102165.44
2023-05-23T05:06:50.782Z,102172.47
2023-05-23T05:09:18.069Z,102172.25
2023-05-23T05:11:44.636Z,102181.69
2023-05-23T05:14:11.247Z,102170.16
2023-05-23T05:16:38.656Z,102187.72
2023-05-23T05:19:05.802Z,102182.09
2023-05-23T05:21:32.379Z,102194.03
2023-05-23T05:24:00.044Z,102195.97
2023-05-23T05:26:26.863Z,102198.19
2023-05-23T05:28:53.998Z,102202.78
2023-05-23T05:31:21.244Z,102204.44
2023-05-23T05:33:47.886Z,102214.78
2023-05-23T05:36:16.045Z,102207.19
2023-05-23T05:38:43.532Z,102214.84
2023-05-23T05:41:10.396Z,102212.25
2023-05-23T05:43:41.894Z,102205.53
2023-05-23T05:46:08.699Z,102213.28
2023-05-23T05:48:35.400Z,102214.31
2023-05-23T05:51:06.448Z,102212.75
2023-05-23T05:53:34.086Z,102212.00
2023-05-23T05:56:00.921Z,102221.44
2023-05-23T05:58:27.696Z,102214.38
2023-05-23T06:00:59.153Z,102226.09
2023-05-23T06:03:27.358Z,102229.69
2023-05-23T06:05:55.072Z,102223.34
2023-05-23T06:08:22.468Z,102228.31
2023-05-23T06:10:49.452Z,102239.28
2023-05-23T06:13:16.342Z,102235.53
2023-05-23T06:15:46.437Z,102235.34
2023-05-23T06:18:16.315Z,102240.97
2023-05-23T06:20:43.532Z,102247.06
2023-05-23T06:23:14.709Z,102241.03
2023-05-23T06:25:41.479Z,102248.72
2023-05-23T06:28:07.985Z,102249.69
2023-05-23T06:30:37.055Z,102248.34
2023-05-23T06:33:04.494Z,102259.50
2023-05-23T06:35:31.027Z,102255.09
2023-05-23T06:38:00.455Z,102257.66
2023-05-23T06:40:26.994Z,102245.78
2023-05-23T06:42:53.415Z,102258.97
2023-05-23T06:45:30.590Z,102255.88
2023-05-23T06:47:57.376Z,102243.19
2023-05-23T06:50:24.478Z,102250.28
2023-05-23T06:52:52.434Z,102249.13
2023-05-23T06:55:19.525Z,102255.19
2023-05-23T06:57:51.920Z,102257.59
2023-05-23T07:00:20.353Z,102247.91
2023-05-23T07:03:03.711Z,102265.53
2023-05-23T07:05:30.738Z,102260.66
2023-05-23T07:07:57.604Z,102255.34
2023-05-23T07:10:26.213Z,102265.47
2023-05-23T07:12:55.727Z,102273.63
2023-05-23T07:15:22.469Z,102268.72
2023-05-23T07:18:05.048Z,102278.25
2023-05-23T07:20:33.934Z,102271.53
2023-05-23T07:23:09.612Z,102272.56
2023-05-23T07:25:38.936Z,102272.44
2023-05-23T07:28:10.690Z,102279.97
2023-05-23T07:30:37.662Z,102279.03
2023-05-23T07:33:04.720Z,102270.38
2023-05-23T07:35:33.096Z,102273.00
2023-05-23T07:38:00.756Z,102280.91
2023-05-23T07:40:27.572Z,102271.31
2023-05-23T07:42:54.270Z,102283.94
2023-05-23T07:45:20.778Z,102287.94
2023-05-23T07:47:47.701Z,102286.97
2023-05-23T07:50:14.984Z,102289.34
2023-05-23T07:52:42.514Z,102289.34
2023-05-23T07:55:12.052Z,102290.53
2023-05-23T07:57:38.601Z,102299.63
2023-05-23T08:00:06.588Z,102293.78
2023-05-23T08:02:41.637Z,102292.13
2023-05-23T08:05:12.319Z,102291.34
2023-05-23T08:07:38.807Z,102288.66
2023-05-23T08:10:06.158Z,102301.16
2023-05-23T08:12:33.798Z,102301.25
2023-05-23T08:15:08.160Z,102305.38
2023-05-23T08:17:42.446Z,102293.69
2023-05-23T08:20:10.157Z,102314.13
2023-05-23T08:22:37.119Z,102322.31
2023-05-23T08:25:05.621Z,102314.25
2023-05-23T08:27:36.155Z,102315.75
2023-05-23T08:30:10.555Z,102320.69
2023-05-23T08:32:38.721Z,102323.94
2023-05-23T08:35:05.992Z,102320.03
2023-05-23T08:37:32.878Z,102315.66
2023-05-23T08:39:59.371Z,102322.53
2023-05-23T08:42:39.871Z,102318.53
2023-05-23T08:45:09.403Z,102322.44
2023-05-23T08:47:42.639Z,102311.22
2023-05-23T08:50:12.631Z,102307.59
2023-05-23T08:52:44.808Z,102321.91
2023-05-23T08:55:12.163Z,102321.19
2023-05-23T08:57:43.705Z,102327.41
2023-05-23T09:00:28.059Z,102328.63
2023-05-23T09:02:55.194Z,102345.91
2023-05-23T09:05:42.416Z,102337.69
2023-05-23T09:08:09.589Z,102335.53
2023-05-23T09:10:36.232Z,102329.00
2023-05-23T09:13:04.932Z,102331.91
2023-05-23T09:15:32.197Z,102356.09
2023-05-23T09:18:01.768Z,102337.22
2023-05-23T09:20:28.874Z,102349.94
2023-05-23T09:23:00.977Z,102344.03
2023-05-23T09:25:28.736Z,102354.16
2023-05-23T09:27:56.655Z,102344.44
2023-05-23T09:30:23.925Z,102352.97
2023-05-23T09:33:04.667Z,102356.50
2023-05-23T09:35:32.279Z,102359.22
2023-05-23T09:37:59.449Z,102360.88
2023-05-23T09:40:31.858Z,102358.94
2023-05-23T09:43:04.047Z,102372.38
2023-05-23T09:45:32.061Z,102372.22
2023-05-23T09:48:01.632Z,102368.75
2023-05-23T09:50:33.819Z,102367.94
2023-05-23T09:53:01.896Z,102365.97
2023-05-23T09:55:28.518Z,102361.66
2023-05-23T09:57:58.384Z,102377.78
2023-05-23T10:00:25.487Z,102374.56
2023-05-23T10:03:01.898Z,102386.31
2023-05-23T10:05:39.647Z,102376.41
2023-05-23T10:08:14.784Z,102383.88
2023-05-23T10:10:56.260Z,102386.97
2023-05-23T10:13:26.819Z,102383.13
2023-05-23T10:16:02.777Z,102385.28
2023-05-23T10:18:38.697Z,102389.53
2023-05-23T10:21:12.064Z,102393.41
2023-05-23T10:23:39.318Z,102385.91
2023-05-23T10:26:06.979Z,102382.59
2023-05-23T10:28:33.552Z,102374.94
2023-05-23T10:31:00.370Z,102388.81
2023-05-23T10:33:32.029Z,102379.72
2023-05-23T10:36:09.140Z,102390.50
2023-05-23T10:39:01.156Z,102388.88
2023-05-23T10:41:58.918Z,102382.72
2023-05-23T10:44:32.158Z,102392.16
2023-05-23T10:47:03.097Z,102379.72
2023-05-23T10:49:45.983Z,102391.41
2023-05-23T10:52:14.073Z,102388.34
2023-05-23T10:54:44.904Z,102388.06
2023-05-23T10:57:12.899Z,102395.97
2023-05-23T10:59:39.929Z,102388.69
2023-05-23T11:02:14.389Z,102383.91
2023-05-23T11:04:42.419Z,102393.53
2023-05-23T11:07:31.611Z,102392.22
2023-05-23T11:10:24.065Z,102394.94
2023-05-23T11:12:50.618Z,102401.38
2023-05-23T11:15:17.034Z,102395.69
2023-05-23T11:17:52.739Z,102389.81
2023-05-23T11:20:24.482Z,102387.19
2023-05-23T11:22:58.470Z,102401.34
2023-05-23T11:25:53.440Z,102391.03
2023-05-23T11:28:20.579Z,102388.22
2023-05-23T11:30:51.130Z,102392.22
2023-05-23T11:33:18.619Z,102398.69
2023-05-23T11:35:51.804Z,102399.47
2023-05-23T11:38:18.408Z,102408.72
2023-05-23T11:40:47.004Z,102413.19
2023-05-23T11:43:18.075Z,102410.22
2023-05-23T11:45:46.896Z,102408.81
2023-05-23T11:48:17.686Z,102403.69
2023-05-23T11:50:46.480Z,102403.69
2023-05-23T11:53:13.926Z,102398.50
2023-05-23T11:55:41.824Z,102401.50
2023-05-23T11:58:09.449Z,102389.34
2023-05-23T12:00:43.489Z,102394.19
2023-05-23T12:03:10.210Z,102400.31
2023-05-23T12:05:36.892Z,102405.25
2023-05-23T12:08:03.881Z,102407.50
2023-05-23T12:10:30.399Z,102405.16
2023-05-23T12:12:56.939Z,102404.59
2023-05-23T12:15:29.877Z,102401.50
2023-05-23T12:17:56.945Z,102399.75
2023-05-23T12:20:24.209Z,102407.94
2023-05-23T12:22:50.702Z,102408.41
2023-05-23T12:25:17.545Z,102405.72
2023-05-23T12:27:44.156Z,102415.88
2023-05-23T12:30:16.340Z,102414.84
2023-05-23T12:32:45.197Z,102398.38
2023-05-23T12:35:13.658Z,102414.72
2023-05-23T12:37:46.625Z,102410.00
2023-05-23T12:40:14.935Z,102408.97
2023-05-23T12:42:59.678Z,102419.19
2023-05-23T12:45:36.955Z,102413.16
2023-05-23T12:48:04.330Z,102413.84
2023-05-23T12:50:31.157Z,102417.84
2023-05-23T12:52:58.097Z,102412.47
2023-05-23T12:55:24.620Z,102416.56
2023-05-23T12:57:51.450Z,102416.16
2023-05-23T13:00:19.356Z,102417.03
2023-05-23T13:02:46.236Z,102409.16
2023-05-23T13:05:12.868Z,102414.94
2023-05-23T13:07:39.386Z,102417.56
2023-05-23T13:10:06.538Z,102424.97
2023-05-23T13:12:34.231Z,102432.13
2023-05-23T13:15:01.007Z,102427.91
2023-05-23T13:17:27.573Z,102433.69
2023-05-23T13:19:54.053Z,102426.22
2023-05-23T13:22:20.706Z,102433.69
2023-05-23T13:24:47.187Z,102441.84
2023-05-23T13:27:13.706Z,102430.81
2023-05-23T13:29:40.292Z,102432.38
2023-05-23T13:32:07.118Z,102427.44
2023-05-23T13:34:37.173Z,102426.28
2023-05-23T13:37:04.058Z,102432.38
2023-05-23T13:39:30.655Z,102431.25
2023-05-23T13:41:57.155Z,102434.44
2023-05-23T13:44:23.666Z,102431.38
2023-05-23T13:46:50.437Z,102438.41
2023-05-23T13:49:16.980Z,102431.94
2023-05-23T13:51:44.308Z,102431.25
2023-05-23T13:54:10.848Z,102434.53
2023-05-23T13:56:39.686Z,102437.03
2023-05-23T13:59:06.090Z,102425.78
2023-05-23T14:01:32.593Z,102433.63
2023-05-23T14:03:59.068Z,102429.63
2023-05-23T14:06:25.651Z,102428.47
2023-05-23T14:08:52.150Z,102429.13
2023-05-23T14:11:18.665Z,102433.38
2023-05-23T14:13:45.193Z,102426.03
2023-05-23T14:16:11.711Z,102425.88
2023-05-23T14:18:38.183Z,102436.31
2023-05-23T14:21:04.628Z,102432.78
2023-05-23T14:23:31.100Z,102427.16
2023-05-23T14:26:01.381Z,102426.13
2023-05-23T14:28:27.988Z,102426.41
2023-05-23T14:30:55.716Z,102440.09
2023-05-23T14:33:22.526Z,102438.09
2023-05-23T14:35:49.329Z,102431.38
2023-05-23T14:38:16.200Z,102441.84
2023-05-23T14:40:44.104Z,102439.13
2023-05-23T14:43:11.506Z,102433.88
2023-05-23T14:45:38.317Z,102442.50
2023-05-23T14:48:06.087Z,102441.13
2023-05-23T14:50:32.675Z,102441.94
2023-05-23T14:52:59.705Z,102445.03
2023-05-23T14:55:26.277Z,102449.06
2023-05-23T14:57:52.792Z,102443.56
2023-05-23T15:00:19.534Z,102448.53
2023-05-23T15:02:46.671Z,102439.41
2023-05-23T15:05:13.857Z,102441.75
2023-05-23T15:07:40.360Z,102443.94
2023-05-23T15:10:08.316Z,102452.44
2023-05-23T15:12:34.790Z,102450.00
2023-05-23T15:15:04.445Z,102453.66
2023-05-23T15:17:33.387Z,102449.81
2023-05-23T15:20:00.124Z,102453.56
2023-05-23T15:24:58.611Z,102455.31
2023-05-23T15:27:25.227Z,102449.06
2023-05-23T15:29:51.649Z,102459.63
2023-05-23T15:32:18.241Z,102460.84
2023-05-23T15:34:44.971Z,102462.34
2023-05-23T15:37:11.483Z,102460.38
2023-05-23T15:39:37.973Z,102467.88
2023-05-23T15:42:04.758Z,102461.88
2023-05-23T15:44:31.300Z,102462.91
2023-05-23T15:46:58.334Z,102463.16
2023-05-23T15:49:29.109Z,102468.59
2023-05-23T15:52:02.131Z,102454.28
2023-05-23T15:54:29.222Z,102465.13
2023-05-23T15:56:55.968Z,102468.66
2023-05-23T15:59:22.679Z,102467.00
2023-05-23T16:01:49.173Z,102466.44
2023-05-23T16:04:16.105Z,102468.00
2023-05-23T16:06:42.606Z,102463.41
2023-05-23T16:09:09.265Z,102461.72
2023-05-23T16:11:35.751Z,102458.75
2023-05-23T16:14:02.284Z,102454.47
2023-05-23T16:16:28.788Z,102461.44
2023-05-23T16:18:55.348Z,102467.50
2023-05-23T16:21:21.927Z,102466.13
2023-05-23T16:23:49.008Z,102457.91
2023-05-23T16:26:18.121Z,102471.38
2023-05-23T16:28:44.927Z,102455.66
2023-05-23T16:31:15.461Z,102463.25
2023-05-23T16:33:42.897Z,102466.03
2023-05-23T16:36:09.517Z,102465.88
2023-05-23T16:38:36.089Z,102468.31
2023-05-23T16:41:02.698Z,102467.66
2023-05-23T16:43:29.241Z,102473.81
2023-05-23T16:45:55.768Z,102469.44
2023-05-23T16:48:22.286Z,102468.31
2023-05-23T16:50:48.790Z,102463.97
2023-05-23T16:53:15.275Z,102460.81
2023-05-23T16:55:41.944Z,102460.91
2023-05-23T16:58:08.783Z,102463.63
2023-05-23T17:00:35.291Z,102465.78
2023-05-23T17:03:02.004Z,102458.38
2023-05-23T17:05:28.563Z,102465.97
2023-05-23T17:07:54.983Z,102463.06
2023-05-23T17:10:24.865Z,102459.03
2023-05-23T17:12:52.212Z,102465.75
2023-05-23T17:15:18.696Z,102467.91
2023-05-23T17:17:45.215Z,102473.41
2023-05-23T17:20:11.739Z,102474.97
2023-05-23T17:22:38.254Z,102464.66
2023-05-23T17:25:06.346Z,102467.53
2023-05-23T17:27:33.337Z,102467.19
2023-05-23T17:29:59.958Z,102466.66
2023-05-23T17:32:26.998Z,102472.44
2023-05-23T17:34:53.622Z,102465.84
2023-05-23T17:37:20.167Z,102469.53
2023-05-23T17:39:46.859Z,102467.03
2023-05-23T17:42:13.551Z,102477.69
2023-05-23T17:44:40.218Z,102467.69
2023-05-23T17:47:06.820Z,102477.31
2023-05-23T17:49:33.677Z,102482.44
2023-05-23T17:52:04.551Z,102478.59
2023-05-23T17:54:31.556Z,102484.66
2023-05-23T17:56:58.021Z,102484.31
2023-05-23T17:59:24.871Z,102484.97
2023-05-23T18:01:51.638Z,102480.38
2023-05-23T18:04:18.269Z,102475.91
2023-05-23T18:06:44.811Z,102479.38
2023-05-23T18:09:11.669Z,102483.09
2023-05-23T18:11:38.453Z,102477.53
2023-05-23T18:14:04.998Z,102476.81
2023-05-23T18:16:32.218Z,102476.00
2023-05-23T18:18:59.441Z,102481.97
2023-05-23T18:21:27.198Z,102486.06
2023-05-23T18:23:53.718Z,102491.28
2023-05-23T18:26:20.239Z,102489.13
2023-05-23T18:28:46.741Z,102497.97
2023-05-23T18:31:13.209Z,102485.47
2023-05-23T18:33:39.718Z,102480.59
2023-05-23T18:36:07.043Z,102489.75
2023-05-23T18:38:34.181Z,102482.22
2023-05-23T18:41:00.790Z,102475.16
2023-05-23T18:43:27.514Z,102482.19
2023-05-23T18:45:53.959Z,102482.69
2023-05-23T18:48:21.624Z,102489.44
2023-05-23T18:50:48.121Z,102489.25
2023-05-23T18:53:15.847Z,102493.91
2023-05-23T18:55:42.356Z,102499.81
2023-05-23T18:58:08.854Z,102503.56
2023-05-23T19:00:35.798Z,102501.72
2023-05-23T19:03:02.494Z,102503.13
2023-05-23T19:05:29.532Z,102504.63
2023-05-23T19:07:56.075Z,102498.56
2023-05-23T19:10:22.562Z,102497.34
2023-05-23T19:12:49.073Z,102502.63
2023-05-23T19:15:15.621Z,102495.84
2023-05-23T19:17:42.209Z,102504.97
2023-05-23T19:20:09.484Z,102499.72
2023-05-23T19:22:50.525Z,102504.13
2023-05-23T19:25:18.867Z,102506.84
2023-05-23T19:27:45.285Z,102507.22
2023-05-23T19:30:12.060Z,102512.13
2023-05-23T19:32:38.531Z,102520.25
2023-05-23T19:35:05.660Z,102516.31
2023-05-23T19:37:32.356Z,102528.03
2023-05-23T19:39:58.959Z,102538.69
2023-05-23T19:42:25.581Z,102543.41
2023-05-23T19:44:52.181Z,102548.66
2023-05-23T19:47:18.745Z,102549.50
2023-05-23T19:49:45.695Z,102551.88
2023-05-23T19:52:12.213Z,102544.09
2023-05-23T19:54:38.857Z,102547.16
2023-05-23T19:57:05.874Z,102549.53
2023-05-23T19:59:32.367Z,102562.03
2023-05-23T20:01:59.330Z,102555.63
2023-05-23T20:04:26.056Z,102560.19
2023-05-23T20:06:52.666Z,102554.94
2023-05-23T20:09:19.160Z,102559.84
2023-05-23T20:11:46.463Z,102556.63
2023-05-23T20:14:13.181Z,102559.00
2023-05-23T20:16:39.903Z,102552.03
2023-05-23T20:19:07.241Z,102547.47
2023-05-23T20:21:33.821Z,102545.44
2023-05-23T20:24:00.503Z,102529.03
2023-05-23T20:26:27.567Z,102537.34
2023-05-23T20:28:54.008Z,102539.34
2023-05-23T20:31:20.563Z,102540.03
2023-05-23T20:33:47.067Z,102541.59
2023-05-23T20:36:13.542Z,102548.69
2023-05-23T20:38:41.044Z,102536.66
2023-05-23T20:41:07.531Z,102539.22
2023-05-23T20:43:37.057Z,102543.78
2023-05-23T20:46:09.354Z,102541.22
2023-05-23T20:48:36.003Z,102541.41
2023-05-23T20:51:05.511Z,102544.31
2023-05-23T20:53:32.056Z,102540.72
2023-05-23T20:55:59.189Z,102546.66
2023-05-23T20:58:25.836Z,102548.50
2023-05-23T21:00:52.552Z,102556.63
2023-05-23T21:03:19.171Z,102551.06
2023-05-23T21:05:45.639Z,102546.28
2023-05-23T21:08:12.137Z,102543.78
2023-05-23T21:10:38.656Z,102547.84
2023-05-23T21:13:05.293Z,102544.44
2023-05-23T21:15:31.852Z,102542.06
2023-05-23T21:17:58.873Z,102549.84
2023-05-23T21:20:25.675Z,102551.53
2023-05-23T21:22:52.348Z,102548.81
2023-05-23T21:25:18.776Z,102550.53
2023-05-23T21:27:45.298Z,102543.41
2023-05-23T21:30:12.460Z,102542.75
2023-05-23T21:32:39.015Z,102535.31
2023-05-23T21:35:06.376Z,102542.56
2023-05-23T21:37:32.824Z,102534.47
2023-05-23T21:39:59.359Z,102536.31
2023-05-23T21:42:25.944Z,102542.75
2023-05-23T21:44:52.414Z,102548.69
2023-05-23T21:47:21.132Z,102548.81
2023-05-23T21:49:47.612Z,102549.19
2023-05-23T21:52:14.170Z,102545.59
2023-05-23T21:54:40.862Z,102545.47
2023-05-23T21:57:07.327Z,102544.63
2023-05-23T21:59:33.746Z,102534.47
2023-05-23T22:02:00.823Z,102530.75
2023-05-23T22:04:27.679Z,102533.13
2023-05-23T22:06:54.321Z,102539.53
2023-05-23T22:09:20.857Z,102537.69
2023-05-23T22:11:47.360Z,102541.41
2023-05-23T22:14:13.951Z,102534.78
2023-05-23T22:16:40.853Z,102535.31
2023-05-23T22:19:09.766Z,102524.34
2023-05-23T22:21:36.866Z,102532.78
2023-05-23T22:24:03.816Z,102528.53
2023-05-23T22:26:30.681Z,102530.41
2023-05-23T22:28:57.159Z,102527.69
2023-05-23T22:31:24.064Z,102528.41
2023-05-23T22:33:51.225Z,102526.69
2023-05-23T22:36:18.300Z,102527.69
2023-05-23T22:38:45.255Z,102529.75
2023-05-23T22:41:11.868Z,102528.22
2023-05-23T22:43:38.532Z,102530.72
2023-05-23T22:46:05.259Z,102527.38
2023-05-23T22:48:34.589Z,102523.13
2023-05-23T22:51:02.451Z,102518.94
2023-05-23T22:53:30.199Z,102529.88
2023-05-23T22:55:57.348Z,102526.19
2023-05-23T22:58:23.998Z,102528.91
2023-05-23T23:00:51.101Z,102527.03
2023-05-23T23:03:17.863Z,102521.78
2023-05-23T23:05:44.435Z,102522.97
2023-05-23T23:08:11.986Z,102523.13
2023-05-23T23:10:38.669Z,102516.03
2023-05-23T23:13:05.116Z,102514.34
2023-05-23T23:15:33.682Z,102521.63
2023-05-23T23:18:00.957Z,102516.53
2023-05-23T23:20:27.591Z,102511.47
2023-05-23T23:22:54.104Z,102519.75
2023-05-23T23:25:20.850Z,102519.22
2023-05-23T23:27:47.327Z,102517.03
2023-05-23T23:30:13.855Z,102520.06
2023-05-23T23:32:40.820Z,102511.44
2023-05-23T23:35:07.673Z,102506.34
2023-05-23T23:37:34.224Z,102508.22
2023-05-23T23:40:00.768Z,102507.38
2023-05-23T23:42:27.266Z,102507.56
2023-05-23T23:44:53.711Z,102509.41
2023-05-23T23:47:20.146Z,102505.84
2023-05-23T23:49:46.579Z,102509.41
2023-05-23T23:52:13.421Z,102495.03
2023-05-23T23:54:39.938Z,102487.97
2023-05-23T23:57:06.742Z,102485.56
2023-05-23T23:59:33.269Z,102485.25
